createdAt,value
2018-02-24T12:45:35.656Z,1.39
2018-02-24T12:50:50.160Z,1.41
2018-02-24T12:55:52.648Z,1.17
2018-02-24T13:00:55.113Z,1.28
2018-02-24T13:05:57.574Z,1.35
2018-02-24T13:11:00.047Z,1.11
2018-02-24T13:16:02.613Z,1.70
2018-02-24T13:21:05.102Z,1.40
2018-02-24T13:26:07.581Z,0.97
2018-02-24T13:31:10.053Z,0.95
2018-02-24T13:36:12.525Z,1.14
2018-02-24T13:41:14.994Z,1.33
2018-02-24T13:46:17.532Z,1.01
2018-02-24T13:51:20.005Z,1.36
2018-02-24T13:56:22.498Z,1.45
2018-02-24T14:01:24.981Z,0.85
2018-02-24T14:06:27.461Z,0.55
2018-02-24T14:11:29.994Z,0.98
2018-02-24T14:16:41.531Z,1.72
2018-02-24T14:21:44.015Z,1.31
2018-02-24T14:26:46.501Z,0.74
2018-02-24T14:31:48.995Z,0.37
2018-02-24T14:36:52.414Z,0.05
2018-02-24T14:41:54.903Z,0.41
2018-02-24T14:46:57.392Z,-0.06
2018-02-24T14:51:59.912Z,-0.35
2018-02-24T14:57:02.510Z,-0.15
2018-02-24T15:02:05.044Z,0.21
2018-02-24T15:07:07.524Z,0.33
2018-02-24T15:12:09.996Z,0.59
2018-02-24T15:17:12.498Z,0.20
2018-02-24T15:22:15.092Z,-0.11
2018-02-24T15:27:17.594Z,-0.19
2018-02-24T15:32:20.096Z,-0.35
2018-02-24T15:37:22.578Z,-0.28
2018-02-24T15:42:25.065Z,-0.34
2018-02-24T15:47:28.010Z,-0.65
2018-02-24T15:52:30.484Z,-0.67
2018-02-24T15:57:32.958Z,-0.84
2018-02-24T16:02:35.527Z,-1.04
2018-02-24T16:07:38.005Z,-1.19
2018-02-24T16:12:40.524Z,-1.35
2018-02-24T16:17:43.923Z,-1.52
2018-02-24T16:22:46.514Z,-1.59
2018-02-24T16:27:48.994Z,-1.68
2018-02-24T16:32:51.481Z,-1.75
2018-02-24T16:37:53.964Z,-1.86
2018-02-24T16:42:56.437Z,-2.04
2018-02-24T16:47:58.973Z,-2.09
2018-02-24T16:53:01.618Z,-2.28
2018-02-24T16:58:04.873Z,-2.21
2018-02-24T17:03:07.362Z,-2.15
2018-02-24T17:08:09.884Z,-2.21
2018-02-24T17:13:12.441Z,-2.29
2018-02-24T17:18:14.945Z,-2.32
2018-02-24T17:23:17.436Z,-2.36
2018-02-24T17:28:20.019Z,-2.35
2018-02-24T17:33:22.507Z,-2.41
2018-02-24T17:38:24.988Z,-2.47
2018-02-24T17:43:27.458Z,-2.54
2018-02-24T17:48:29.936Z,-2.65
2018-02-24T17:53:32.408Z,-2.81
2018-02-24T17:58:34.913Z,-2.57
2018-02-24T18:03:37.410Z,-2.62
2018-02-24T18:08:39.918Z,-2.66
2018-02-24T18:13:42.411Z,-2.78
2018-02-24T18:18:44.988Z,-2.82
2018-02-24T18:23:47.515Z,-3.00
2018-02-24T18:28:49.976Z,-3.02
2018-02-24T18:33:52.492Z,-2.99
2018-02-24T18:38:54.993Z,-2.97
2018-02-24T18:43:57.484Z,-3.04
2018-02-24T18:48:59.994Z,-3.10
2018-02-24T18:54:02.466Z,-3.30
2018-02-24T18:59:04.978Z,-3.24
2018-02-24T19:04:07.453Z,-3.22
2018-02-24T19:09:10.106Z,-3.17
2018-02-24T19:14:12.582Z,-3.24
2018-02-24T19:19:15.112Z,-3.28
2018-02-24T19:24:17.593Z,-3.59
2018-02-24T19:29:20.088Z,-3.50
2018-02-24T19:34:22.631Z,-3.49
2018-02-24T19:39:25.128Z,-3.35
2018-02-24T19:44:28.319Z,-3.38
2018-02-24T19:49:30.793Z,-3.50
2018-02-24T19:54:33.279Z,-3.34
2018-02-24T19:59:35.752Z,-3.46
2018-02-24T20:04:38.290Z,-3.65
2018-02-24T20:09:40.796Z,-3.79
2018-02-24T20:14:43.352Z,-3.63
2018-02-24T20:19:45.869Z,-3.70
2018-02-24T20:24:48.363Z,-3.95
2018-02-24T20:29:50.878Z,-3.81
2018-02-24T20:34:53.585Z,-3.88
2018-02-24T20:39:56.070Z,-3.87
2018-02-24T20:44:58.578Z,-3.88
2018-02-24T20:50:01.062Z,-3.91
2018-02-24T20:55:03.563Z,-4.06
2018-02-24T21:00:06.025Z,-4.11
2018-02-24T21:05:08.610Z,-4.11
2018-02-24T21:10:11.083Z,-4.19
2018-02-24T21:15:13.583Z,-4.37
2018-02-24T21:20:16.072Z,-4.41
2018-02-24T21:25:18.585Z,-4.32
2018-02-24T21:30:21.060Z,-4.42
2018-02-24T21:35:23.586Z,-4.47
2018-02-24T21:40:26.173Z,-4.59
2018-02-24T21:45:28.664Z,-4.60
2018-02-24T21:50:31.126Z,-4.67
2018-02-24T21:55:33.618Z,-4.79
2018-02-24T22:00:36.113Z,-4.82
2018-02-24T22:05:38.588Z,-4.68
2018-02-24T22:10:41.067Z,-4.76
2018-02-24T22:15:43.543Z,-4.87
2018-02-24T22:20:46.045Z,-4.84
2018-02-24T22:25:48.532Z,-4.99
2018-02-24T22:30:51.009Z,-5.02
2018-02-24T22:35:53.522Z,-5.29
2018-02-24T22:40:56.014Z,-5.32
2018-02-24T22:45:58.501Z,-5.24
2018-02-24T22:51:01.046Z,-5.12
2018-02-24T22:56:03.532Z,-5.35
2018-02-24T23:01:06.003Z,-5.38
2018-02-24T23:06:08.501Z,-5.48
2018-02-24T23:11:10.981Z,-5.59
2018-02-24T23:16:13.441Z,-5.54
2018-02-24T23:21:16.444Z,-5.68
2018-02-24T23:26:18.918Z,-5.93
2018-02-24T23:31:21.397Z,-5.90
2018-02-24T23:36:23.883Z,-5.92
2018-02-24T23:41:26.366Z,-5.97
2018-02-24T23:46:28.874Z,-6.06
2018-02-24T23:51:31.387Z,-6.13
2018-02-24T23:56:33.884Z,-6.27
